This is the latest recevied weather packets stored in our database for station/object WA9NNN-10. If no packets are shown the sender has not sent any weather packets the latest 1 day(s).
| Time | Temp. | Humidity | Pressure | Rain* | Wind** | Luminosity | Snow |
|---|---|---|---|---|---|---|---|
| 1778094397 | 15° C | 34% | 1013.4 hPa | 0 mm | - | - | - |
| 1778093797 | 14.44° C | 37% | 1013.4 hPa | 0 mm | - | - | - |
| 1778092597 | 14.44° C | 36% | 1013.4 hPa | 0 mm | - | - | - |
| 1778091997 | 15° C | 34% | 1013.3 hPa | 0 mm | - | - | - |
| 1778091397 | 15.56° C | 34% | 1013.3 hPa | 0 mm | - | - | - |
| 1778090198 | 16.11° C | 33% | 1013.4 hPa | 0 mm | - | - | - |
| 1778088997 | 16.11° C | 33% | 1013.6 hPa | 0 mm | - | - | - |
| 1778086597 | 17.22° C | 32% | 1013.6 hPa | 0 mm | - | - | - |
| 1778086297 | 16.11° C | 32% | 1013.5 hPa | 0 mm | - | - | - |
| 1778085397 | 15.56° C | 34% | 1013.5 hPa | 0 mm | - | - | - |
| 1778084797 | 15° C | 34% | 1013.6 hPa | 0 mm | - | - | - |
| 1778084197 | 14.44° C | 34% | 1013.6 hPa | 0 mm | - | - | - |
| 1778082397 | 13.89° C | 35% | 1013.6 hPa | 0 mm | - | - | - |
| 1778081797 | 13.89° C | 34% | 1013.6 hPa | 0 mm | - | - | - |
| 1778080897 | 13.89° C | 34% | 1013.7 hPa | 0 mm | - | - | - |
| 1778080598 | 13.89° C | 36% | 1013.8 hPa | 0 mm | - | - | - |
| 1778079697 | 13.33° C | 34% | 1013.8 hPa | 0 mm | - | - | - |
| 1778079397 | 13.89° C | 36% | 1013.8 hPa | 0 mm | - | - | - |
| 1778078497 | 13.89° C | 37% | 1013.9 hPa | 0 mm | - | - | - |
| 1778077298 | 12.78° C | 40% | 1013.9 hPa | 0 mm | - | - | - |
| 1778076697 | 12.78° C | 40% | 1013.8 hPa | 0 mm | - | - | - |
| 1778076098 | 12.22° C | 41% | 1013.7 hPa | 0 mm | - | - | - |
| 1778074297 | 11.11° C | 48% | 1013.3 hPa | 0 mm | - | - | - |
| 1778073697 | 10.56° C | 51% | 1013.2 hPa | 0 mm | - | - | - |
| 1778071897 | 9.44° C | 57% | 1013 hPa | 0 mm | - | - | - |
* Rain latest hour (hover to see other rain measurements)
** Current wind speed in m/s (hover to see current wind gust speed)